Zeja, Russia
Current Conditions -  °F | °C
As of 4:00 AM on Tuesday 23 Dec 2014 (Local Time) from UHBB Reporting Station
Clear Clear  
Wind Chill: -11°   Ceiling: Unl
Heat Index: -11°   Visibility: 6mi
Dew Point: -15°   Wind: 2mph
Humidity: 84%   Direction: NA
Pressure: 29.94"   Gusts: NA
Location:  53.75°N, 127.27°E
Report Text: UHBB 221900Z VRB01MPS CAVOK M24/M26 Q1014 NOSIG RMK QFE743/099036410250
Loading
Personal Weather Stations






























Interactive Weather Map New forecast layout! Learn more

10-Day Weather Forecast

Advertisements
Track Severe Weather on mobile